createdAt,value
2019-05-10T00:00:25.368Z,1.10
2019-05-10T00:03:10.318Z,1.10
2019-05-10T00:05:55.416Z,1.10
2019-05-10T00:08:40.147Z,1.20
2019-05-10T00:11:08.574Z,0.90
2019-05-10T00:13:55.367Z,1.07
2019-05-10T00:16:23.016Z,1.10
2019-05-10T00:18:49.345Z,0.90
2019-05-10T00:21:15.682Z,2.07
2019-05-10T00:23:42.017Z,0.80
2019-05-10T00:26:08.457Z,1.10
2019-05-10T00:28:34.795Z,0.83
2019-05-10T00:31:01.127Z,0.93
2019-05-10T00:33:27.876Z,0.80
2019-05-10T00:35:54.196Z,0.80
2019-05-10T00:38:20.536Z,1.30
2019-05-10T00:40:47.999Z,0.63
2019-05-10T00:43:14.316Z,1.23
2019-05-10T00:45:40.656Z,0.97
2019-05-10T00:48:06.978Z,1.30
2019-05-10T00:50:33.663Z,0.70
2019-05-10T00:52:59.978Z,0.80
2019-05-10T00:55:26.320Z,0.80
2019-05-10T00:57:52.932Z,0.80
2019-05-10T01:00:20.312Z,1.37
2019-05-10T01:02:46.642Z,0.83
2019-05-10T01:05:12.979Z,0.83
2019-05-10T01:07:39.317Z,0.90
2019-05-10T01:10:05.946Z,0.77
2019-05-10T01:12:32.274Z,0.80
2019-05-10T01:14:58.619Z,0.60
2019-05-10T01:17:24.956Z,0.63
2019-05-10T01:19:51.299Z,1.23
2019-05-10T01:22:17.641Z,0.90
2019-05-10T01:24:43.989Z,1.00
2019-05-10T01:27:10.298Z,0.93
2019-05-10T01:29:36.648Z,1.10
2019-05-10T01:32:03.093Z,1.03
2019-05-10T01:34:29.429Z,1.60
2019-05-10T01:36:55.781Z,1.20
2019-05-10T01:39:22.111Z,1.10
2019-05-10T01:41:48.444Z,1.40
2019-05-10T01:44:14.755Z,1.47
2019-05-10T01:46:41.105Z,1.60
2019-05-10T01:49:07.420Z,1.67
2019-05-10T01:51:33.757Z,2.57
2019-05-10T01:54:00.103Z,1.93
2019-05-10T01:56:26.425Z,1.60
2019-05-10T01:58:53.078Z,2.13
2019-05-10T02:01:19.391Z,1.67
2019-05-10T02:03:45.786Z,2.80
2019-05-10T02:06:12.444Z,2.53
2019-05-10T02:08:38.771Z,2.50
2019-05-10T02:11:05.100Z,3.00
2019-05-10T02:13:31.769Z,2.83
2019-05-10T02:15:58.115Z,3.20
2019-05-10T02:18:24.636Z,3.17
2019-05-10T02:20:50.978Z,3.30
2019-05-10T02:23:17.338Z,3.90
2019-05-10T02:25:43.670Z,4.50
2019-05-10T02:28:10.108Z,3.60
2019-05-10T02:30:36.455Z,5.20
2019-05-10T02:33:03.182Z,4.67
2019-05-10T02:35:29.558Z,4.47
2019-05-10T02:37:55.952Z,5.83
2019-05-10T02:40:22.338Z,5.83
2019-05-10T02:42:48.749Z,5.23
2019-05-10T02:45:15.612Z,5.60
2019-05-10T02:47:41.947Z,5.23
2019-05-10T02:50:08.604Z,5.83
2019-05-10T02:52:34.908Z,4.87
2019-05-10T02:55:01.456Z,4.60
2019-05-10T02:57:28.366Z,4.57
2019-05-10T02:59:54.990Z,5.63
2019-05-10T03:02:23.558Z,4.90
2019-05-10T03:04:52.295Z,4.90
2019-05-10T03:07:24.621Z,5.37
2019-05-10T03:09:50.964Z,4.00
2019-05-10T03:12:23.903Z,4.83
2019-05-10T03:14:54.169Z,4.30
2019-05-10T03:17:20.498Z,3.97
2019-05-10T03:19:51.296Z,4.80
2019-05-10T03:22:17.840Z,5.73
2019-05-10T03:24:44.244Z,4.90
2019-05-10T03:27:10.725Z,4.67
2019-05-10T03:29:37.033Z,4.40
2019-05-10T03:32:03.373Z,4.70
2019-05-10T03:34:29.840Z,5.80
2019-05-10T03:36:56.186Z,5.70
2019-05-10T03:39:22.518Z,5.40
2019-05-10T03:41:48.845Z,5.37
2019-05-10T03:44:15.239Z,7.07
2019-05-10T03:46:41.568Z,5.77
2019-05-10T03:49:07.969Z,4.80
2019-05-10T03:51:34.288Z,5.10
2019-05-10T03:54:00.940Z,5.23
2019-05-10T03:56:29.974Z,4.73
2019-05-10T03:58:55.752Z,5.13
2019-05-10T04:01:22.466Z,5.00
2019-05-10T04:03:59.746Z,5.27
2019-05-10T04:06:26.084Z,5.10
2019-05-10T04:08:52.408Z,5.40
2019-05-10T04:11:18.769Z,5.30
2019-05-10T04:13:45.139Z,5.50
2019-05-10T04:16:11.416Z,5.47
2019-05-10T04:18:37.774Z,5.10
2019-05-10T04:21:05.165Z,3.60
2019-05-10T04:23:31.616Z,4.20
2019-05-10T04:25:58.932Z,4.77
2019-05-10T04:28:25.235Z,4.87
2019-05-10T04:30:51.617Z,4.60
2019-05-10T04:33:18.337Z,4.60
2019-05-10T04:35:44.814Z,5.60
2019-05-10T04:38:11.447Z,4.50
2019-05-10T04:40:37.802Z,4.20
2019-05-10T04:43:04.122Z,4.40
2019-05-10T04:45:30.481Z,3.17
2019-05-10T04:47:56.851Z,4.70
2019-05-10T04:50:23.210Z,4.70
2019-05-10T04:52:49.632Z,4.97
2019-05-10T04:55:15.995Z,5.00
2019-05-10T04:57:50.489Z,4.50
2019-05-10T05:00:10.871Z,4.43
2019-05-10T05:05:39.837Z,4.90
2019-05-10T05:08:06.553Z,4.20
2019-05-10T05:10:33.015Z,4.40
2019-05-10T05:12:59.635Z,4.07
2019-05-10T05:15:26.009Z,4.53
2019-05-10T05:17:52.337Z,4.70
2019-05-10T05:20:20.173Z,4.07
2019-05-10T05:22:46.499Z,4.23
2019-05-10T05:25:13.043Z,4.83
2019-05-10T05:27:39.423Z,4.17
2019-05-10T05:30:06.541Z,4.03
2019-05-10T05:32:32.858Z,3.83
2019-05-10T05:34:59.180Z,4.20
2019-05-10T05:37:25.514Z,3.60
2019-05-10T05:39:51.824Z,3.33
2019-05-10T05:42:22.402Z,2.97
2019-05-10T05:44:46.455Z,2.90
2019-05-10T05:47:12.782Z,3.50
2019-05-10T05:49:39.118Z,3.97
2019-05-10T05:52:05.454Z,3.00
2019-05-10T05:54:31.789Z,3.20
2019-05-10T05:56:58.132Z,3.67
2019-05-10T05:59:26.242Z,3.73
2019-05-10T06:01:53.057Z,2.93
2019-05-10T06:04:19.400Z,3.30
2019-05-10T06:06:45.717Z,4.13
2019-05-10T06:09:12.075Z,4.23
2019-05-10T06:11:38.396Z,4.03
2019-05-10T06:14:10.576Z,3.40
2019-05-10T06:16:32.966Z,4.10
2019-05-10T06:18:59.400Z,4.17
2019-05-10T06:21:26.761Z,4.20
2019-05-10T06:23:53.902Z,4.23
2019-05-10T06:26:26.430Z,4.37
2019-05-10T06:28:59.825Z,3.73
2019-05-10T06:31:16.804Z,4.13
2019-05-10T06:33:44.996Z,4.20
2019-05-10T06:36:11.609Z,5.10
2019-05-10T06:38:37.949Z,5.67
2019-05-10T06:41:04.273Z,4.77
2019-05-10T06:43:30.624Z,4.30
2019-05-10T06:45:56.971Z,4.90
2019-05-10T06:48:27.427Z,4.13
2019-05-10T06:50:51.548Z,4.30
2019-05-10T06:53:17.874Z,3.77
2019-05-10T06:55:44.220Z,4.97
2019-05-10T06:58:10.850Z,4.83
2019-05-10T07:00:38.043Z,4.97
2019-05-10T07:03:05.733Z,4.07
2019-05-10T07:05:32.057Z,4.53
2019-05-10T07:08:00.594Z,4.90
2019-05-10T07:10:26.939Z,4.40
2019-05-10T07:12:56.935Z,4.73
2019-05-10T07:15:21.475Z,5.50
2019-05-10T07:17:47.786Z,4.37
2019-05-10T07:20:14.114Z,3.47
2019-05-10T07:22:40.938Z,4.30
2019-05-10T07:25:07.893Z,5.37
2019-05-10T07:27:36.604Z,5.17
2019-05-10T07:30:07.436Z,5.80
2019-05-10T07:32:33.889Z,5.43
2019-05-10T07:35:01.181Z,6.33
2019-05-10T07:37:27.555Z,6.27
2019-05-10T07:39:53.871Z,5.17
2019-05-10T07:42:20.578Z,5.43
2019-05-10T07:44:48.774Z,4.77
2019-05-10T07:47:15.179Z,5.20
2019-05-10T07:49:41.503Z,4.67
2019-05-10T07:52:07.829Z,4.67
2019-05-10T07:54:37.548Z,5.17
2019-05-10T07:57:02.716Z,5.00
2019-05-10T07:59:32.422Z,5.10
2019-05-10T08:01:57.291Z,5.00
2019-05-10T08:04:31.737Z,4.37
2019-05-10T08:06:52.278Z,4.50
2019-05-10T08:09:19.409Z,4.23
2019-05-10T08:11:48.330Z,3.47
2019-05-10T08:14:14.187Z,3.57
2019-05-10T08:16:40.527Z,2.60
2019-05-10T08:19:06.854Z,3.23
2019-05-10T08:21:33.191Z,2.30
2019-05-10T08:24:05.209Z,2.90
2019-05-10T08:26:28.178Z,2.83
2019-05-10T08:28:54.514Z,2.23
2019-05-10T08:31:22.165Z,2.50
2019-05-10T08:33:56.099Z,2.20
2019-05-10T08:36:17.693Z,2.30
2019-05-10T08:38:46.785Z,3.10
2019-05-10T08:41:14.827Z,3.20
2019-05-10T08:43:42.812Z,2.93
2019-05-10T08:46:11.810Z,2.43
2019-05-10T08:48:42.904Z,2.80
2019-05-10T08:51:07.616Z,2.70
2019-05-10T08:53:34.185Z,3.00
2019-05-10T08:56:02.277Z,3.17
2019-05-10T08:58:36.882Z,2.57
2019-05-10T09:01:15.149Z,2.67
2019-05-10T09:03:25.797Z,3.30
2019-05-10T09:05:52.603Z,3.17
2019-05-10T09:08:21.521Z,2.40
2019-05-10T09:10:47.351Z,2.20
2019-05-10T09:13:13.752Z,1.43
2019-05-10T09:15:51.382Z,1.60
2019-05-10T09:18:08.724Z,1.50
2019-05-10T09:20:35.028Z,2.07
2019-05-10T09:23:02.472Z,1.73
2019-05-10T09:25:30.980Z,1.40
2019-05-10T09:28:04.489Z,2.27
2019-05-10T09:30:35.745Z,1.03
2019-05-10T09:33:08.452Z,1.00
2019-05-10T09:35:32.855Z,1.40
2019-05-10T09:37:59.076Z,1.20
2019-05-10T09:40:25.985Z,1.00
2019-05-10T09:42:52.430Z,1.57
2019-05-10T09:45:18.746Z,1.10
2019-05-10T09:47:45.078Z,1.30
2019-05-10T09:50:12.644Z,1.00
2019-05-10T09:52:39.317Z,1.17
2019-05-10T09:55:10.165Z,1.00
2019-05-10T09:57:34.106Z,0.90
2019-05-10T10:00:00.448Z,1.00
2019-05-10T10:02:33.444Z,1.40
2019-05-10T10:08:17.957Z,1.10
2019-05-10T10:10:44.261Z,1.07
2019-05-10T10:13:13.660Z,1.10
2019-05-10T10:15:38.819Z,1.40
2019-05-10T10:18:05.283Z,0.97
2019-05-10T10:20:36.071Z,1.00
2019-05-10T10:23:02.446Z,0.80
2019-05-10T10:25:30.061Z,1.20
2019-05-10T10:27:57.511Z,1.07
2019-05-10T10:30:24.386Z,1.10
2019-05-10T10:32:50.703Z,0.97
2019-05-10T10:35:20.504Z,1.00
2019-05-10T10:37:47.558Z,0.93
2019-05-10T10:40:16.117Z,0.80
2019-05-10T10:42:42.778Z,1.30
2019-05-10T10:45:11.209Z,1.10
2019-05-10T10:47:39.541Z,0.80
2019-05-10T10:50:09.158Z,0.80
2019-05-10T10:52:37.628Z,1.00
2019-05-10T10:55:11.094Z,1.00
2019-05-10T10:57:34.517Z,1.10
2019-05-10T11:00:00.827Z,1.20
2019-05-10T11:02:33.287Z,0.90
2019-05-10T11:04:55.693Z,0.80
2019-05-10T11:07:22.914Z,0.90
2019-05-10T11:09:53.861Z,1.10
2019-05-10T11:12:22.568Z,0.90
2019-05-10T11:14:46.533Z,0.80
2019-05-10T11:17:12.871Z,1.10
2019-05-10T11:19:41.591Z,0.80
2019-05-10T11:22:09.670Z,1.00
2019-05-10T11:24:35.802Z,0.97
2019-05-10T11:27:02.391Z,0.80
2019-05-10T11:29:30.854Z,0.83
2019-05-10T11:32:12.360Z,1.07
2019-05-10T11:34:29.330Z,0.70
2019-05-10T11:36:53.822Z,0.77
2019-05-10T11:39:26.449Z,0.90
2019-05-10T11:41:53.100Z,0.63
2019-05-10T11:44:18.126Z,0.90
2019-05-10T11:46:44.452Z,0.80
2019-05-10T11:49:10.875Z,0.60
2019-05-10T11:51:37.207Z,0.70
2019-05-10T11:54:03.697Z,0.77
2019-05-10T11:56:32.253Z,0.60
2019-05-10T11:59:02.186Z,0.70
2019-05-10T12:01:27.448Z,1.20
2019-05-10T12:03:53.876Z,0.80
2019-05-10T12:06:21.393Z,0.60
2019-05-10T12:08:47.867Z,0.80
2019-05-10T12:11:27.610Z,0.70
2019-05-10T12:13:42.494Z,0.60
2019-05-10T12:16:12.441Z,0.73
2019-05-10T12:18:37.096Z,0.73
2019-05-10T12:21:09.744Z,0.60
2019-05-10T12:23:33.573Z,0.80
2019-05-10T12:27:12.677Z,0.73
2019-05-10T12:28:29.976Z,0.60
2019-05-10T12:30:56.371Z,0.63
2019-05-10T12:33:25.764Z,0.77
2019-05-10T12:35:51.134Z,0.83
2019-05-10T12:38:17.677Z,0.77
2019-05-10T12:40:45.847Z,0.60
2019-05-10T12:43:12.344Z,0.90
2019-05-10T12:45:38.722Z,0.80
2019-05-10T12:48:05.013Z,0.70
2019-05-10T12:50:32.244Z,0.67
2019-05-10T12:53:08.330Z,0.67
2019-05-10T12:55:27.080Z,0.70
2019-05-10T12:57:53.491Z,0.70
2019-05-10T13:00:21.528Z,0.70
2019-05-10T13:02:53.264Z,0.93
2019-05-10T13:05:16.399Z,0.87
2019-05-10T13:07:42.816Z,0.67
2019-05-10T13:10:09.981Z,0.77
2019-05-10T13:12:43.284Z,0.60
2019-05-10T13:15:06.241Z,0.83
2019-05-10T13:17:32.556Z,0.70
2019-05-10T13:20:00.622Z,0.77
2019-05-10T13:22:36.829Z,0.80
2019-05-10T13:24:55.391Z,0.70
2019-05-10T13:27:21.870Z,0.60
2019-05-10T13:29:53.454Z,0.80
2019-05-10T13:32:20.701Z,0.70
2019-05-10T13:34:44.767Z,0.70
2019-05-10T13:37:26.223Z,0.70
2019-05-10T13:40:07.914Z,0.80
2019-05-10T13:42:36.308Z,1.00
2019-05-10T13:45:04.259Z,0.80
2019-05-10T13:47:30.706Z,0.70
2019-05-10T13:49:57.310Z,0.80
2019-05-10T13:52:29.785Z,0.90
2019-05-10T13:54:52.616Z,0.90
2019-05-10T13:57:18.990Z,1.23
2019-05-10T13:59:49.086Z,0.70
2019-05-10T14:02:14.247Z,0.60
2019-05-10T14:04:40.584Z,0.80
2019-05-10T14:07:07.067Z,0.80
2019-05-10T14:09:33.433Z,0.60
2019-05-10T14:11:59.998Z,0.80
2019-05-10T14:14:26.879Z,0.80
2019-05-10T14:16:54.349Z,0.93
2019-05-10T14:19:22.818Z,1.17
2019-05-10T14:21:49.093Z,2.03
2019-05-10T14:24:16.661Z,0.90
2019-05-10T14:26:43.138Z,1.07
2019-05-10T14:29:11.224Z,1.00
2019-05-10T14:31:41.226Z,1.00
2019-05-10T14:34:15.717Z,0.90
2019-05-10T14:36:40.820Z,1.03
2019-05-10T14:39:06.709Z,0.83
2019-05-10T14:41:34.062Z,0.67
2019-05-10T14:44:00.449Z,1.23
2019-05-10T14:46:26.770Z,0.97
2019-05-10T14:48:53.106Z,0.70
2019-05-10T14:51:19.419Z,0.70
2019-05-10T14:53:47.064Z,0.80
2019-05-10T14:56:13.984Z,0.80
2019-05-10T14:58:41.619Z,0.80
2019-05-10T15:01:09.233Z,0.70
2019-05-10T15:03:44.936Z,0.70
2019-05-10T15:06:03.916Z,0.80
2019-05-10T15:08:30.228Z,0.73
2019-05-10T15:10:57.358Z,0.70
2019-05-10T15:13:43.546Z,0.70
2019-05-10T15:16:12.856Z,0.80
2019-05-10T15:18:38.108Z,0.77
2019-05-10T15:21:06.535Z,0.80
2019-05-10T15:23:32.906Z,0.80
2019-05-10T15:26:10.715Z,0.87
2019-05-10T15:28:27.528Z,0.90
2019-05-10T15:30:53.859Z,0.93
2019-05-10T15:33:23.530Z,0.90
2019-05-10T15:35:52.058Z,1.20
2019-05-10T15:38:19.678Z,1.20
2019-05-10T15:40:46.138Z,1.10
2019-05-10T15:43:16.967Z,1.00
2019-05-10T15:45:46.130Z,1.40
2019-05-10T15:48:09.369Z,1.00
2019-05-10T15:50:38.451Z,1.00
2019-05-10T15:53:04.399Z,1.30
2019-05-10T15:55:38.160Z,1.40
2019-05-10T15:58:09.408Z,1.40
2019-05-10T16:00:39.190Z,1.03
2019-05-10T16:03:03.980Z,1.10
2019-05-10T16:05:42.952Z,1.07
2019-05-10T16:07:58.719Z,0.90
2019-05-10T16:10:28.356Z,0.87
2019-05-10T16:12:53.301Z,1.03
2019-05-10T16:15:21.189Z,1.20
2019-05-10T16:17:48.078Z,0.83
2019-05-10T16:20:14.398Z,1.40
2019-05-10T16:22:40.715Z,0.97
2019-05-10T16:25:07.080Z,1.10
2019-05-10T16:27:33.848Z,1.30
2019-05-10T16:30:03.792Z,0.80
2019-05-10T16:32:34.463Z,1.10
2019-05-10T16:34:58.736Z,1.00
2019-05-10T16:37:25.385Z,1.20
2019-05-10T16:39:51.737Z,1.10
2019-05-10T16:42:34.667Z,1.00
2019-05-10T16:45:00.698Z,1.70
2019-05-10T16:47:27.030Z,1.37
2019-05-10T16:49:55.107Z,1.57
2019-05-10T16:52:26.101Z,1.10
2019-05-10T16:54:50.359Z,1.37
2019-05-10T16:57:16.766Z,0.90
2019-05-10T16:59:43.647Z,0.77
2019-05-10T17:02:12.007Z,1.00
2019-05-10T17:04:39.888Z,1.03
2019-05-10T17:07:06.383Z,1.30
2019-05-10T17:09:33.310Z,0.90
2019-05-10T17:11:59.618Z,0.70
2019-05-10T17:14:26.541Z,0.90
2019-05-10T17:16:58.271Z,0.80
2019-05-10T17:19:27.696Z,0.90
2019-05-10T17:21:52.990Z,1.00
2019-05-10T17:24:24.081Z,1.03
2019-05-10T17:26:47.585Z,1.20
2019-05-10T17:29:15.021Z,1.30
2019-05-10T17:31:45.670Z,1.30
2019-05-10T17:34:09.643Z,1.30
2019-05-10T17:36:35.958Z,1.17
2019-05-10T17:39:04.734Z,1.03
2019-05-10T17:41:31.144Z,1.30
2019-05-10T17:43:58.575Z,1.20
2019-05-10T17:46:24.881Z,2.00
2019-05-10T17:48:51.508Z,1.03
2019-05-10T17:51:18.248Z,1.33
2019-05-10T17:53:44.584Z,1.30
2019-05-10T17:56:12.047Z,1.53
2019-05-10T17:58:38.380Z,1.30
2019-05-10T18:01:04.824Z,1.40
2019-05-10T18:03:31.154Z,1.43
2019-05-10T18:05:57.475Z,1.63
2019-05-10T18:08:23.940Z,1.40
2019-05-10T18:10:56.622Z,1.50
2019-05-10T18:13:19.782Z,1.40
2019-05-10T18:15:46.817Z,1.43
2019-05-10T18:18:13.255Z,1.40
2019-05-10T18:20:42.225Z,1.77
2019-05-10T18:23:08.113Z,1.50
2019-05-10T18:25:34.529Z,1.73
2019-05-10T18:28:00.878Z,1.77
2019-05-10T18:30:27.305Z,1.70
2019-05-10T18:32:55.276Z,1.90
2019-05-10T18:35:21.611Z,1.97
2019-05-10T18:37:47.934Z,2.03
2019-05-10T18:40:14.640Z,2.10
2019-05-10T18:42:41.051Z,2.00
2019-05-10T18:45:07.584Z,2.80
2019-05-10T18:47:33.923Z,3.00
2019-05-10T18:50:00.292Z,4.67
2019-05-10T18:52:26.644Z,9.50
2019-05-10T18:54:53.016Z,4.87
2019-05-10T18:57:19.786Z,4.87
2019-05-10T18:59:47.108Z,5.90
2019-05-10T19:02:18.030Z,6.97
2019-05-10T19:04:45.934Z,11.37
2019-05-10T19:07:11.382Z,6.93
2019-05-10T19:09:37.809Z,4.63
2019-05-10T19:12:04.411Z,10.20
2019-05-10T19:14:31.329Z,4.87
2019-05-10T19:16:58.169Z,4.53
2019-05-10T19:19:24.499Z,3.87
2019-05-10T19:21:50.894Z,4.20
2019-05-10T19:24:24.375Z,5.60
2019-05-10T19:26:48.550Z,5.60
2019-05-10T19:29:14.890Z,5.60
2019-05-10T19:31:41.250Z,9.17
2019-05-10T19:34:09.310Z,37.30
2019-05-10T19:36:35.930Z,22.30
2019-05-10T19:39:05.601Z,35.63
2019-05-10T19:41:31.928Z,34.67
2019-05-10T19:44:02.469Z,32.70
2019-05-10T19:46:30.130Z,44.50
2019-05-10T19:48:54.852Z,11.07
2019-05-10T19:51:22.850Z,25.20
2019-05-10T19:53:49.420Z,9.20
2019-05-10T19:56:15.802Z,7.87
2019-05-10T19:58:42.215Z,7.00
2019-05-10T20:01:09.931Z,9.57
2019-05-10T20:03:36.323Z,6.17
2019-05-10T20:06:02.673Z,6.50
2019-05-10T20:08:28.998Z,6.30
2019-05-10T20:10:55.308Z,5.13
2019-05-10T20:13:22.105Z,5.20
2019-05-10T20:15:48.529Z,4.80
2019-05-10T20:18:15.288Z,5.17
2019-05-10T20:20:41.662Z,5.30
2019-05-10T20:23:08.036Z,5.10
2019-05-10T20:25:34.351Z,4.60
2019-05-10T20:28:01.356Z,4.60
2019-05-10T20:30:27.884Z,5.33
2019-05-10T20:32:54.327Z,5.40
2019-05-10T20:35:20.641Z,5.37
2019-05-10T20:38:00.726Z,6.03
2019-05-10T20:40:15.454Z,7.00
2019-05-10T20:42:41.756Z,5.40
2019-05-10T20:45:08.838Z,6.90
2019-05-10T20:47:35.639Z,6.47
2019-05-10T20:50:02.414Z,5.87
2019-05-10T20:52:29.345Z,6.00
2019-05-10T20:54:55.704Z,6.73
2019-05-10T20:57:22.163Z,7.07
2019-05-10T20:59:48.508Z,6.63
2019-05-10T21:02:15.923Z,7.00
2019-05-10T21:04:42.726Z,6.33
2019-05-10T21:07:09.495Z,6.73
2019-05-10T21:09:35.833Z,6.70
2019-05-10T21:12:02.670Z,6.83
2019-05-10T21:14:29.030Z,7.93
2019-05-10T21:16:55.430Z,7.10
2019-05-10T21:19:22.055Z,7.77
2019-05-10T21:21:48.422Z,7.30
2019-05-10T21:24:15.130Z,6.93
2019-05-10T21:26:41.483Z,6.47
2019-05-10T21:29:08.202Z,6.87
2019-05-10T21:31:34.869Z,7.00
2019-05-10T21:34:09.855Z,7.10
2019-05-10T21:36:30.767Z,8.20
2019-05-10T21:38:57.467Z,7.67
2019-05-10T21:41:23.895Z,6.77
2019-05-10T21:43:50.344Z,6.80
2019-05-10T21:46:16.727Z,7.30
2019-05-10T21:48:43.083Z,7.17
2019-05-10T21:51:09.535Z,8.43
2019-05-10T21:53:35.876Z,7.70
2019-05-10T21:56:02.328Z,8.73
2019-05-10T21:58:28.661Z,8.70
2019-05-10T22:00:55.016Z,8.40
2019-05-10T22:03:26.137Z,11.37
2019-05-10T22:05:52.491Z,10.50
2019-05-10T22:08:18.790Z,9.57
2019-05-10T22:10:45.221Z,10.73
2019-05-10T22:13:11.557Z,9.90
2019-05-10T22:15:37.994Z,8.83
2019-05-10T22:18:04.462Z,10.20
2019-05-10T22:20:30.833Z,8.40
2019-05-10T22:22:57.552Z,7.63
2019-05-10T22:25:23.884Z,8.07
2019-05-10T22:27:50.220Z,7.37
2019-05-10T22:30:16.785Z,7.90
2019-05-10T22:32:43.559Z,7.30
2019-05-10T22:35:10.111Z,6.50
2019-05-10T22:37:36.838Z,6.67
2019-05-10T22:40:04.463Z,7.50
2019-05-10T22:42:30.831Z,6.67
2019-05-10T22:44:57.165Z,7.10
2019-05-10T22:47:25.509Z,5.80
2019-05-10T22:49:53.675Z,6.20
2019-05-10T22:52:20.017Z,6.47
2019-05-10T22:54:46.380Z,6.77
2019-05-10T22:57:12.736Z,7.77
2019-05-10T22:59:39.063Z,6.33
2019-05-10T23:02:05.399Z,6.87
2019-05-10T23:04:32.299Z,6.57
2019-05-10T23:06:58.752Z,6.20
2019-05-10T23:09:25.376Z,6.30
2019-05-10T23:11:52.248Z,6.23
2019-05-10T23:14:18.571Z,6.03
2019-05-10T23:16:44.912Z,5.40
2019-05-10T23:19:11.546Z,6.20
2019-05-10T23:21:38.894Z,6.93
2019-05-10T23:24:05.309Z,7.53
2019-05-10T23:26:32.655Z,6.90
2019-05-10T23:28:58.993Z,6.00
2019-05-10T23:31:25.347Z,12.67
2019-05-10T23:33:51.662Z,15.27
2019-05-10T23:36:17.979Z,15.20
2019-05-10T23:38:44.326Z,16.60
2019-05-10T23:41:10.679Z,12.77
2019-05-10T23:43:37.054Z,11.60
2019-05-10T23:46:03.666Z,10.13
2019-05-10T23:48:29.997Z,9.30
2019-05-10T23:50:56.380Z,7.47
2019-05-10T23:53:22.644Z,7.67
2019-05-10T23:55:49.015Z,7.30
2019-05-10T23:58:15.430Z,7.13
